sensor_id;sensor_type;location;lat;lon;timestamp;temperature;humidity
17148;DHT22;8689;47.364;8.796;2023-09-12T02:21:09;16.60;99.90
17148;DHT22;8689;47.364;8.796;2023-09-12T02:28:13;16.40;99.90
17148;DHT22;8689;47.364;8.796;2023-09-12T02:31:14;16.40;99.90
17148;DHT22;8689;47.364;8.796;2023-09-12T03:49:34;16.20;99.90
17148;DHT22;8689;47.364;8.796;2023-09-12T04:20:51;16.20;99.90
17148;DHT22;8689;47.364;8.796;2023-09-12T04:27:25;16.20;99.90
17148;DHT22;8689;47.364;8.796;2023-09-12T04:36:50;16.10;99.90
17148;DHT22;8689;47.364;8.796;2023-09-12T04:46:44;16.10;99.90
17148;DHT22;8689;47.364;8.796;2023-09-12T04:50:03;16.10;99.90
17148;DHT22;8689;47.364;8.796;2023-09-12T04:59:57;16.00;99.90
17148;DHT22;8689;47.364;8.796;2023-09-12T10:48:59;32.10;53.30
17148;DHT22;8689;47.364;8.796;2023-09-12T10:52:07;32.00;54.80
17148;DHT22;8689;47.364;8.796;2023-09-12T10:55:04;31.80;53.60
17148;DHT22;8689;47.364;8.796;2023-09-12T11:14:18;33.10;51.60
17148;DHT22;8689;47.364;8.796;2023-09-12T11:17:22;33.20;51.40
17148;DHT22;8689;47.364;8.796;2023-09-12T11:19:51;33.30;53.00
17148;DHT22;8689;47.364;8.796;2023-09-12T11:22:26;33.40;51.70
17148;DHT22;8689;47.364;8.796;2023-09-12T11:25:02;33.60;52.30
17148;DHT22;8689;47.364;8.796;2023-09-12T11:27:32;33.60;52.90
17148;DHT22;8689;47.364;8.796;2023-09-12T11:30:13;33.50;50.90
17148;DHT22;8689;47.364;8.796;2023-09-12T14:01:22;26.00;74.40
17148;DHT22;8689;47.364;8.796;2023-09-12T14:07:43;25.40;62.30
17148;DHT22;8689;47.364;8.796;2023-09-12T14:10:23;25.00;63.10
17148;DHT22;8689;47.364;8.796;2023-09-12T14:23:15;24.40;60.90
17148;DHT22;8689;47.364;8.796;2023-09-12T14:25:58;24.40;62.00
17148;DHT22;8689;47.364;8.796;2023-09-12T14:28:30;24.40;60.70
17148;DHT22;8689;47.364;8.796;2023-09-12T14:31:03;24.60;62.00
17148;DHT22;8689;47.364;8.796;2023-09-12T14:33:47;24.70;61.60
17148;DHT22;8689;47.364;8.796;2023-09-12T14:36:32;24.90;62.40
17148;DHT22;8689;47.364;8.796;2023-09-12T14:39:24;25.10;61.80
17148;DHT22;8689;47.364;8.796;2023-09-12T14:42:13;25.30;59.90
17148;DHT22;8689;47.364;8.796;2023-09-12T14:44:40;25.30;60.00
17148;DHT22;8689;47.364;8.796;2023-09-12T14:47:09;25.40;59.90
17148;DHT22;8689;47.364;8.796;2023-09-12T14:49:48;25.50;60.40
17148;DHT22;8689;47.364;8.796;2023-09-12T14:56:02;25.40;59.70
17148;DHT22;8689;47.364;8.796;2023-09-12T14:58:41;25.40;60.10
17148;DHT22;8689;47.364;8.796;2023-09-12T15:01:16;25.30;61.20
17148;DHT22;8689;47.364;8.796;2023-09-12T15:03:58;25.20;62.70
17148;DHT22;8689;47.364;8.796;2023-09-12T15:06:29;25.20;63.60
17148;DHT22;8689;47.364;8.796;2023-09-12T15:08:59;25.10;63.20
17148;DHT22;8689;47.364;8.796;2023-09-12T15:11:43;25.00;62.40
17148;DHT22;8689;47.364;8.796;2023-09-12T15:14:17;25.00;62.00
17148;DHT22;8689;47.364;8.796;2023-09-12T15:17:11;25.10;63.20
17148;DHT22;8689;47.364;8.796;2023-09-12T15:24:43;25.50;64.30
17148;DHT22;8689;47.364;8.796;2023-09-12T15:27:34;25.70;61.70
17148;DHT22;8689;47.364;8.796;2023-09-12T15:30:27;25.90;62.60
17148;DHT22;8689;47.364;8.796;2023-09-12T15:37:05;25.80;60.10
17148;DHT22;8689;47.364;8.796;2023-09-12T15:43:19;25.50;63.60
17148;DHT22;8689;47.364;8.796;2023-09-12T15:46:10;25.30;63.10
17148;DHT22;8689;47.364;8.796;2023-09-12T15:52:55;25.00;64.30
17148;DHT22;8689;47.364;8.796;2023-09-12T15:56:07;24.90;64.40
17148;DHT22;8689;47.364;8.796;2023-09-12T15:58:50;24.90;66.60
17148;DHT22;8689;47.364;8.796;2023-09-12T16:01:17;24.80;68.20
17148;DHT22;8689;47.364;8.796;2023-09-12T16:03:45;24.70;64.80
17148;DHT22;8689;47.364;8.796;2023-09-12T16:06:13;24.60;66.20
17148;DHT22;8689;47.364;8.796;2023-09-12T16:12:49;24.40;65.90
17148;DHT22;8689;47.364;8.796;2023-09-12T16:15:39;24.30;68.20
17148;DHT22;8689;47.364;8.796;2023-09-12T16:25:39;24.00;72.00
17148;DHT22;8689;47.364;8.796;2023-09-12T16:28:16;24.00;72.60
17148;DHT22;8689;47.364;8.796;2023-09-12T16:30:46;23.90;72.70
17148;DHT22;8689;47.364;8.796;2023-09-12T16:40:30;23.90;72.90
17148;DHT22;8689;47.364;8.796;2023-09-12T18:14:49;22.00;79.30
17148;DHT22;8689;47.364;8.796;2023-09-12T18:17:42;21.90;79.80
17148;DHT22;8689;47.364;8.796;2023-09-12T18:24:07;21.80;78.00
17148;DHT22;8689;47.364;8.796;2023-09-12T18:30:17;21.90;79.50
17148;DHT22;8689;47.364;8.796;2023-09-12T18:37:05;21.60;80.40
17148;DHT22;8689;47.364;8.796;2023-09-12T18:39:46;21.40;79.50
17148;DHT22;8689;47.364;8.796;2023-09-12T18:42:24;21.30;79.50
17148;DHT22;8689;47.364;8.796;2023-09-12T18:44:56;21.20;80.70
17148;DHT22;8689;47.364;8.796;2023-09-12T18:47:26;21.00;82.30
17148;DHT22;8689;47.364;8.796;2023-09-12T18:49:55;20.90;83.80
17148;DHT22;8689;47.364;8.796;2023-09-12T18:52:23;20.80;84.00
17148;DHT22;8689;47.364;8.796;2023-09-12T18:54:52;20.60;85.70
17148;DHT22;8689;47.364;8.796;2023-09-12T18:57:30;20.40;85.60
17148;DHT22;8689;47.364;8.796;2023-09-12T19:06:40;20.00;87.50
17148;DHT22;8689;47.364;8.796;2023-09-12T19:20:43;19.50;90.70
17148;DHT22;8689;47.364;8.796;2023-09-12T19:23:27;19.40;91.40
17148;DHT22;8689;47.364;8.796;2023-09-12T19:29:28;19.10;91.90
17148;DHT22;8689;47.364;8.796;2023-09-12T19:49:35;18.60;94.60
17148;DHT22;8689;47.364;8.796;2023-09-12T19:52:23;18.50;94.80
17148;DHT22;8689;47.364;8.796;2023-09-12T19:54:54;18.50;94.90
17148;DHT22;8689;47.364;8.796;2023-09-12T19:57:21;18.60;95.00
17148;DHT22;8689;47.364;8.796;2023-09-12T19:59:50;18.60;95.30
17148;DHT22;8689;47.364;8.796;2023-09-12T20:02:17;18.60;95.70
17148;DHT22;8689;47.364;8.796;2023-09-12T20:04:46;18.60;95.90
17148;DHT22;8689;47.364;8.796;2023-09-12T20:07:13;18.50;96.20
17148;DHT22;8689;47.364;8.796;2023-09-12T20:09:40;18.50;95.70
17148;DHT22;8689;47.364;8.796;2023-09-12T20:12:07;18.60;95.60
17148;DHT22;8689;47.364;8.796;2023-09-12T20:14:35;18.60;96.00
17148;DHT22;8689;47.364;8.796;2023-09-12T20:17:03;18.60;95.80
17148;DHT22;8689;47.364;8.796;2023-09-12T20:19:30;18.60;96.00
17148;DHT22;8689;47.364;8.796;2023-09-12T20:22:02;18.60;96.30
17148;DHT22;8689;47.364;8.796;2023-09-12T20:24:31;18.80;96.10
17148;DHT22;8689;47.364;8.796;2023-09-12T20:26:58;18.90;96.00
17148;DHT22;8689;47.364;8.796;2023-09-12T20:29:30;19.00;96.20
17148;DHT22;8689;47.364;8.796;2023-09-12T21:03:45;18.70;99.90
17148;DHT22;8689;47.364;8.796;2023-09-12T21:29:21;18.40;99.90
17148;DHT22;8689;47.364;8.796;2023-09-12T21:32:13;18.40;99.90
17148;DHT22;8689;47.364;8.796;2023-09-12T21:35:52;18.30;99.90
17148;DHT22;8689;47.364;8.796;2023-09-12T21:39:10;18.30;99.90
17148;DHT22;8689;47.364;8.796;2023-09-12T21:42:01;18.30;99.90
17148;DHT22;8689;47.364;8.796;2023-09-12T21:45:19;18.30;99.90
17148;DHT22;8689;47.364;8.796;2023-09-12T21:48:38;18.30;99.90
17148;DHT22;8689;47.364;8.796;2023-09-12T21:51:27;18.40;99.90
17148;DHT22;8689;47.364;8.796;2023-09-12T21:54:16;18.40;99.90
17148;DHT22;8689;47.364;8.796;2023-09-12T21:57:44;18.40;99.90
17148;DHT22;8689;47.364;8.796;2023-09-12T22:04:32;18.60;99.90
17148;DHT22;8689;47.364;8.796;2023-09-12T22:07:24;18.60;99.90
17148;DHT22;8689;47.364;8.796;2023-09-12T22:10:36;18.60;99.90
17148;DHT22;8689;47.364;8.796;2023-09-12T22:13:43;18.60;99.90
17148;DHT22;8689;47.364;8.796;2023-09-12T22:16:42;18.50;99.90
17148;DHT22;8689;47.364;8.796;2023-09-12T22:19:26;18.50;99.90
17148;DHT22;8689;47.364;8.796;2023-09-12T22:21:57;18.50;99.90
17148;DHT22;8689;47.364;8.796;2023-09-12T22:24:44;18.50;99.90
17148;DHT22;8689;47.364;8.796;2023-09-12T22:27:29;18.60;99.90
17148;DHT22;8689;47.364;8.796;2023-09-12T22:29:58;18.70;99.90
17148;DHT22;8689;47.364;8.796;2023-09-12T22:32:37;18.80;99.90
17148;DHT22;8689;47.364;8.796;2023-09-12T22:35:15;19.00;99.90
17148;DHT22;8689;47.364;8.796;2023-09-12T22:38:09;19.10;99.90
17148;DHT22;8689;47.364;8.796;2023-09-12T22:40:50;19.20;99.90
17148;DHT22;8689;47.364;8.796;2023-09-12T22:43:43;19.30;99.90
17148;DHT22;8689;47.364;8.796;2023-09-12T22:46:23;19.30;99.90
17148;DHT22;8689;47.364;8.796;2023-09-12T22:49:15;19.40;99.90
17148;DHT22;8689;47.364;8.796;2023-09-12T22:52:12;19.40;99.90
17148;DHT22;8689;47.364;8.796;2023-09-12T22:55:01;19.40;99.90
17148;DHT22;8689;47.364;8.796;2023-09-12T22:57:53;19.40;99.90
17148;DHT22;8689;47.364;8.796;2023-09-12T23:00:26;19.50;99.90
17148;DHT22;8689;47.364;8.796;2023-09-12T23:02:58;19.40;99.90
17148;DHT22;8689;47.364;8.796;2023-09-12T23:05:26;19.40;99.90
17148;DHT22;8689;47.364;8.796;2023-09-12T23:08:14;19.40;99.90
17148;DHT22;8689;47.364;8.796;2023-09-12T23:11:11;19.40;99.90
17148;DHT22;8689;47.364;8.796;2023-09-12T23:13:55;19.30;99.90
17148;DHT22;8689;47.364;8.796;2023-09-12T23:16:27;19.20;99.90
17148;DHT22;8689;47.364;8.796;2023-09-12T23:19:29;19.20;99.90
17148;DHT22;8689;47.364;8.796;2023-09-12T23:22:48;19.10;99.90
17148;DHT22;8689;47.364;8.796;2023-09-12T23:25:36;19.00;99.90
17148;DHT22;8689;47.364;8.796;2023-09-12T23:28:16;19.00;99.90
17148;DHT22;8689;47.364;8.796;2023-09-12T23:30:55;18.90;99.90
17148;DHT22;8689;47.364;8.796;2023-09-12T23:33:39;18.90;99.90
17148;DHT22;8689;47.364;8.796;2023-09-12T23:37:01;18.80;99.90
17148;DHT22;8689;47.364;8.796;2023-09-12T23:40:07;18.70;99.90
17148;DHT22;8689;47.364;8.796;2023-09-12T23:42:48;18.70;99.90
17148;DHT22;8689;47.364;8.796;2023-09-12T23:45:19;18.60;99.90
17148;DHT22;8689;47.364;8.796;2023-09-12T23:51:29;18.50;99.90
17148;DHT22;8689;47.364;8.796;2023-09-12T23:54:44;18.40;99.90
17148;DHT22;8689;47.364;8.796;2023-09-12T23:57:12;18.40;99.90
17148;DHT22;8689;47.364;8.796;2023-09-12T23:59:55;18.50;99.90
